Weather observations for the past three days for
Iuka Airport
Imperial (Metric)
Date Time (cdt) Wind (mph) Vis. (mi.) Weather Sky Cond. Temperature (ºF) Relative Humidity Wind Chill (°F) Heat Index (°F) Pressure Precipitation (in)
Air Dwpt 6 hour altimeter (in) sea level (mb) 1 hr 3 hr 6 hr
Max. Min.
03 10:35 Calm 9.00 Fair CLR 90.5 76.3 63% 103 30.06 0.0
03 10:15 Calm 10.00 Fair CLR 89.8 77.4 67% 103 30.06 0.0
03 09:55 Calm 10.00 Fair CLR 87.3 76.6 71% 99 30.06 0.0
03 09:35 Calm 10.00 Fair CLR 86 76.1 72% 96 30.06 0.0
03 09:15 Calm 10.00 Fair CLR 84.7 76.1 75% 94 30.06 0.0
03 08:55 E 3 10.00 Fair CLR 82.9 75.7 79% 91 30.07 0.0
03 08:35 E 3 10.00 Fair CLR 81.9 75.7 82% 89 30.07 0.0
03 08:15 Calm 10.00 Fair CLR 80.2 76.1 87% 86 30.07 0.0
03 07:55 Calm 10.00 Fair CLR 77.4 75.7 95% 79 30.07 0.0
03 07:35 Calm 10.00 Fair CLR 76.8 75 94% 78 30.07 0.0
03 07:15 Calm 10.00 Fair CLR 74.8 73.9 97% 30.06 0.0
03 06:55 Calm 9.00 Fair CLR 73.2 73.2 76.5 72.1 100% 30.06 0.0
03 06:35 Calm 10.00 Fair CLR 73.9 73.6 99% 30.05 0.0
03 06:15 Calm 10.00 Fair CLR 73 72.7 99% 30.05 0.0
03 05:55 Calm 10.00 Fair CLR 72.7 72.7 100% 30.04 0.0
03 05:35 Calm 10.00 Fair CLR 72.1 72.1 100% 30.04 0.0
03 05:15 Calm 10.00 Fair CLR 73.2 73 99% 30.03 0.0
03 04:55 Calm 10.00 Fair CLR 73.8 73.4 99% 30.03 0.0
03 04:35 Calm 10.00 Fair CLR 74.1 73.8 99% 30.03 0.0
03 04:15 Calm 10.00 Fair CLR 74.1 73.9 99% 30.03 0.0
03 03:55 Calm 10.00 Fair CLR 73.9 73.8 99% 30.03 0.0
03 03:35 Calm 10.00 Fair CLR 74.1 73.8 99% 30.03 0.0
03 03:15 Calm 10.00 Fair CLR 74.3 73.9 99% 30.03 0.0
03 02:55 Calm 10.00 Fair CLR 74.5 74.1 99% 30.03 0.0
03 02:35 Calm 7.00 Fair CLR 75 74.5 98% 73 30.03 0.0
03 02:15 Calm 10.00 Fair CLR 75.2 74.1 96% 73 30.03 0.0
03 01:55 Calm 10.00 Fair CLR 75.6 74.5 96% 74 30.03 0.0
03 01:35 Calm 10.00 Fair CLR 75.7 75 98% 74 30.03 0.0
03 01:15 Calm 10.00 Fair CLR 76.1 75 96% 76 30.03 0.0
03 00:55 Calm 10.00 Fair CLR 76.8 75.6 86.4 75.9 96% 77 30.03 0.0
03 00:35 Calm 10.00 Fair CLR 77 75.7 96% 78 30.04 0.0
03 00:15 Calm 10.00 Fair CLR 76.3 75.7 98% 76 30.03 0.0
02 23:55 Calm 10.00 Fair CLR 76.8 76.1 98% 77 30.03 0.0
02 23:35 Calm 10.00 Fair CLR 77.5 76.5 96% 79 30.03 0.0
02 23:15 Calm 10.00 Fair CLR 77.2 75.9 96% 78 30.03 0.0
02 22:55 Calm 10.00 Fair CLR 78.3 75.7 92% 81 30.03 0.0
02 22:35 Calm 10.00 Fair CLR 78.3 75.9 93% 81 30.04 0.0
02 22:15 Calm 10.00 Fair CLR 78.4 76.6 94% 82 30.04 0.0
02 21:55 Calm 10.00 Fair CLR 79.9 76.3 89% 85 30.04 0.0
02 21:35 Calm 10.00 Fair CLR 79.7 76.3 89% 85 30.04 0.0
02 21:15 Calm 10.00 Fair CLR 80.8 76.6 87% 87 30.03 0.0
02 20:55 Calm 10.00 Fair CLR 80.8 76.6 87% 87 30.03 0.0
02 20:35 Calm 10.00 Fair CLR 81.7 76.5 84% 89 30.02 0.0
02 20:15 Calm 10.00 Fair CLR 82.8 76.5 81% 91 30.02 0.0
02 19:55 Calm 10.00 Fair CLR 84.2 76.3 77% 93 30.01 0.0
02 19:35 Calm 10.00 Fair CLR 84.9 76.5 76% 95 30.01 0.0
02 19:15 Calm 10.00 Partly Cloudy SCT075 85.6 76.8 75% 96 30.01 0.0
02 18:55 Calm 9.00 Partly Cloudy SCT075 86.4 76.8 96.6 86.4 73% 98 30.01 0.0
02 18:35 Calm 9.00 Fair CLR 87.1 76.3 70% 98 30.01 0.0
02 18:15 N 3 9.00 Fair CLR 91 73.4 56% 100 30.01 0.0
02 17:55 N 6 9.00 A Few Clouds FEW075 92.1 72.5 53% 100 30.01 0.0
02 17:35 N 7 8.00 Partly Cloudy SCT075 93.4 70.9 48% 100 30.02 0.0
02 17:15 N 6 9.00 Fair CLR 92.8 71.2 49% 100 30.02 0.0
02 16:55 Calm 9.00 A Few Clouds FEW075 95.4 69.1 42% 101 30.02 0.0
02 16:35 Vrbl 6 8.00 Partly Cloudy SCT075 96.3 69.1 41% 102 30.02 0.0
02 16:15 Calm 8.00 A Few Clouds FEW065 94.3 70.5 46% 101 30.02 0.0
02 15:55 Calm 8.00 Partly Cloudy SCT065 92.7 71.4 50% 100 30.03 0.0
02 15:35 NE 3 9.00 Mostly Cloudy BKN065 95.4 68 41% 100 30.03 0.0
02 15:15 N 3 8.00 A Few Clouds FEW075 94.8 68 42% 100 30.04 0.0
02 14:55 Calm 10.00 Fair CLR 95.5 67.6 40% 100 30.04 0.0
02 14:35 E 6 10.00 A Few Clouds FEW070 96.1 68 40% 101 30.05 0.0
02 14:15 Calm 9.00 Mostly Cloudy BKN070 94.8 68.5 42% 100 30.06 0.0
02 13:55 Vrbl 5 10.00 Mostly Cloudy BKN070 94.6 69.1 43% 100 30.07 0.0
02 13:35 Calm 10.00 Partly Cloudy SCT060 94.6 69.3 44% 100 30.07 0.0
02 13:15 Calm 10.00 Fair CLR 94.3 69.3 44% 100 30.08 0.0
02 12:55 Calm 10.00 Fair CLR 93.6 69.3 93.7 72.3 45% 99 30.09 0.0
02 12:35 W 3 10.00 Fair CLR 93.2 69.3 46% 99 30.09 0.0
02 12:15 Calm 10.00 Fair CLR 92.7 70.5 49% 99 30.1 0.0
02 11:55 Vrbl 3 10.00 Fair CLR 92.1 72.5 53% 100 30.12 0.0
02 11:35 Calm 10.00 Fair CLR 91.8 73.4 55% 101 30.12 0.0
02 11:15 Vrbl 3 10.00 Fair CLR 91.4 73 55% 100 30.12 0.0
02 10:55 Calm 10.00 Fair CLR 90.1 73.2 58% 99 30.13 0.0
02 10:35 Calm 10.00 Fair CLR 89.6 71.6 55% 96 30.13 0.0
02 10:15 Calm 10.00 Fair CLR 88.5 73.9 62% 97 30.13 0.0
02 09:55 S 3 10.00 Fair CLR 86.7 73.6 65% 95 30.12 0.0
02 09:35 SE 3 10.00 Fair CLR 85.6 74.3 69% 94 30.12 0.0
02 09:15 E 3 10.00 Fair CLR 83.8 75.4 76% 92 30.12 0.0
02 08:55 Calm 10.00 Fair CLR 82.2 74.7 78% 89 30.12 0.0
02 08:35 Calm 10.00 Fair CLR 81.1 75 82% 87 30.12 0.0
02 08:15 Calm 10.00 Fair CLR 78.8 74.5 87% 82 30.12 0.0
02 07:55 Calm 10.00 Fair CLR 76.6 74.1 92% 77 30.12 0.0
02 07:35 Calm 10.00 Fair CLR 75.2 73.9 96% 73 30.12 0.0
02 07:15 Calm 10.00 Fair CLR 73.6 73 98% 30.11 0.0
02 06:35 Calm 10.00 Fair CLR 71.6 71.6 100% 30.1 0.0
02 06:15 Calm 10.00 Fair CLR 72.1 72 99% 30.09 0.0
02 05:55 Calm 10.00 Fair CLR 73.4 72.7 98% 30.09 0.0
02 05:35 Calm 10.00 Fair CLR 72.5 72.1 99% 30.08 0.0
02 05:15 Calm 10.00 Fair CLR 72.3 72.1 99% 30.08 0.0
02 04:55 Calm 10.00 Fair CLR 71.8 71.8 100% 30.08 0.0
02 04:35 Calm 10.00 Fair CLR 71.6 71.6 100% 30.07 0.0
02 04:15 Calm 10.00 Fair CLR 72.7 72 98% 30.07 0.0
02 03:55 Calm 10.00 Fair CLR 72.5 72.5 100% 30.06 0.0
02 03:35 Calm 10.00 Fair CLR 72.7 72.7 100% 30.06 0.0
02 03:15 Calm 10.00 Fair CLR 72.9 72.7 99% 30.06 0.0
02 02:55 Calm 10.00 Fair CLR 73.6 73.2 99% 30.06 0.0
02 02:35 Calm 9.00 Fair CLR 72.9 72.9 100% 30.06 0.0
02 02:15 Calm 10.00 Fair CLR 73.8 73.2 98% 30.06 0.0
02 01:55 Calm 10.00 Fair CLR 74.3 73.4 97% 30.06 0.0
02 01:35 Calm 10.00 Fair CLR 74.3 73.2 96% 30.06 0.0
02 01:15 Calm 10.00 Fair CLR 74.1 73.4 98% 30.06 0.0
02 00:55 Calm 10.00 Fair CLR 74.8 74.3 85.1 74.5 98% 30.07 0.0
02 00:35 Calm 10.00 Fair CLR 75.4 74.3 96% 74 30.07 0.0
02 00:15 Calm 10.00 Fair CLR 75.4 74.8 98% 73 30.06 0.0
01 23:55 Calm 10.00 Fair CLR 75 74.5 98% 73 30.06 0.0
01 23:35 Calm 10.00 Fair CLR 76.1 74.8 96% 76 30.06 0.0
01 23:15 Calm 10.00 Fair CLR 76.8 75 94% 78 30.07 0.0
01 22:35 Calm 10.00 Fair CLR 77.4 75.2 93% 79 30.07 0.0
01 22:15 Calm 10.00 Fair CLR 77.4 75.6 94% 79 30.07 0.0
01 21:55 Calm 10.00 Fair CLR 78.4 75.7 91% 82 30.07 0.0
01 21:35 Calm 10.00 Fair CLR 78.8 75.9 91% 83 30.07 0.0
01 21:15 Calm 10.00 Fair CLR 79.5 75.9 89% 84 30.06 0.0
01 20:55 Calm 10.00 Fair CLR 80.6 76.3 87% 87 30.06 0.0
01 20:35 Calm 10.00 Fair CLR 81.1 76.5 86% 88 30.05 0.0
01 20:15 Calm 10.00 Fair CLR 81.3 76.1 84% 88 30.05 0.0
01 19:55 Calm 10.00 Fair CLR 82.2 75.7 81% 90 30.04 0.0
01 19:35 Calm 10.00 Fair CLR 82.9 75.2 78% 90 30.04 0.0
01 19:15 Calm 10.00 Fair CLR 84.6 74.7 72% 93 30.04 0.0
01 18:55 Calm 10.00 Fair CLR 85.6 75.2 95.9 85.6 71% 95 30.04 0.0
01 18:35 Calm 10.00 Fair CLR 86.2 74.3 68% 95 30.04 0.0
01 18:15 Calm 10.00 Fair CLR 87.1 74.1 65% 96 30.04 0.0
01 17:55 Calm 10.00 A Few Clouds FEW075 89.2 73 59% 97 30.04 0.0
01 17:35 Calm 9.00 A Few Clouds FEW075 89.6 73.4 59% 98 30.04 0.0
01 17:15 S 3 9.00 A Few Clouds FEW100 91.9 72.5 53% 100 30.04 0.0
01 16:55 Calm 9.00 Fair CLR 93.7 70 46% 100 30.04 0.0
01 16:35 Calm 10.00 Fair CLR 95.2 67.5 40% 100 30.05 0.0
01 16:15 E 3 9.00 Fair CLR 94.6 68.4 42% 100 30.05 0.0
01 15:55 E 5 10.00 A Few Clouds FEW075 95.2 67.8 41% 100 30.05 0.0
01 15:35 Calm 10.00 Partly Cloudy SCT070 95 68 41% 100 30.05 0.0
01 15:15 Calm 10.00 Partly Cloudy SCT065 94.6 67.6 41% 99 30.06 0.0
01 14:55 Vrbl 3 10.00 Fair CLR 95 67.1 40% 99 30.07 0.0
01 14:35 Vrbl 3 10.00 Fair CLR 94.5 68.9 43% 100 30.07 0.0
01 14:15 NE 7 10.00 Fair CLR 94.5 68.7 43% 100 30.08 0.0
01 13:55 E 6 10.00 Fair CLR 94.1 68.5 43% 99 30.09 0.0
01 13:35 N 3 10.00 A Few Clouds FEW055 93.6 67.5 42% 98 30.09 0.0
01 13:15 N 6 10.00 Partly Cloudy SCT050 93.2 69.6 46% 99 30.1 0.0
01 12:55 Vrbl 3 10.00 Fair CLR 91.8 71.4 92.5 72.5 51% 99 30.11 0.0
01 12:35 N 5 10.00 Fair CLR 92.1 71.2 51% 99 30.12 0.0
01 12:15 Calm 10.00 Fair CLR 91.4 71.6 52% 99 30.12 0.0
01 11:55 Vrbl 3 10.00 Fair CLR 91 71.4 53% 98 30.13 0.0
01 11:35 Vrbl 5 10.00 Fair CLR 91.6 73 55% 100 30.13 0.0
01 11:15 NW 3 10.00 Fair CLR 90.1 74.7 60% 100 30.14 0.0
01 10:55 Vrbl 3 10.00 Fair CLR 89.2 74.5 62% 99 30.14 0.0
01 10:35 Calm 10.00 Fair CLR 89.2 74.3 61% 99 30.14 0.0
01 10:15 Calm 10.00 Fair CLR 88 75.2 66% 98 30.14 0.0
01 09:55 SE 3 10.00 Fair CLR 86.5 74.1 67% 95 30.14 0.0
01 09:35 Vrbl 3 10.00 Fair CLR 85.5 75.6 72% 95 30.14 0.0
01 09:15 Calm 10.00 Fair CLR 84 75.2 75% 92 30.14 0.0
01 08:55 Calm 10.00 Fair CLR 82.2 76.1 82% 90 30.14 0.0
01 08:35 Calm 10.00 Fair CLR 80.4 75.7 86% 86 30.14 0.0
01 08:15 Calm 10.00 Fair CLR 78.1 75.6 92% 81 30.14 0.0
01 07:55 Calm 10.00 Fair CLR 76.1 75 96% 76 30.14 0.0
01 07:35 Calm 9.00 Fair CLR 75.2 74.7 98% 73 30.13 0.0
01 07:15 Calm 6.00 Fog/Mist CLR 73.8 73.6 99% 30.13 0.0
01 06:55 Calm 7.00 Fair CLR 72.3 72.3 74.8 71.4 100% 30.12 0.0
01 06:35 Calm 9.00 Fair CLR 72.1 72.1 100% 30.12 0.0
01 06:15 Calm 10.00 Fair CLR 71.8 71.8 100% 30.11 0.0
01 05:55 Calm 10.00 Fair CLR 72.3 72.3 100% 30.1 0.0
01 05:35 Calm 10.00 Fair CLR 71.6 71.6 100% 30.1 0.0
01 05:15 Calm 10.00 Fair CLR 71.8 71.8 100% 30.1 0.0
01 04:55 Calm 10.00 Fair CLR 73 73 100% 30.1 0.0
01 04:35 Calm 10.00 Fair CLR 72 72 100% 30.09 0.0
01 04:15 Calm 10.00 Fair CLR 72.1 72.1 100% 30.09 0.0
01 03:55 Calm 10.00 Fair CLR 72.7 72.7 100% 30.09 0.0
01 03:35 Calm 9.00 Fair CLR 72.5 72.5 100% 30.09 0.0
01 03:15 Calm 10.00 Fair CLR 72.9 72.9 100% 30.09 0.0
01 02:35 Calm 10.00 Fair CLR 73.4 73.4 100% 30.08 0.0
01 02:15 Calm 10.00 Fair CLR 72.9 72.9 100% 30.09 0.0
01 01:55 Calm 10.00 Fair CLR 74.3 74.3 100% 30.08 0.0
01 01:35 Calm 10.00 Fair CLR 74.5 74.5 100% 30.09 0.0
01 01:15 Calm 10.00 Fair CLR 74.3 74.1 99% 30.08 0.0
01 00:55 Calm 10.00 Fair CLR 74.5 74.5 84.4 74.3 100% 30.09 0.0
01 00:35 Calm 10.00 Fair CLR 74.7 74.7 100% 30.09 0.0
01 00:15 Calm 10.00 Fair CLR 74.7 74.7 100% 30.09 0.0
31 23:55 Calm 10.00 Fair CLR 75.9 75.7 99% 75 30.09 0.0
31 23:35 Calm 10.00 Fair CLR 75.4 75.4 100% 73 30.09 0.0
31 23:15 Calm 10.00 Fair CLR 75.2 75.2 100% 73 30.08 0.0
31 22:55 Calm 10.00 Fair CLR 77 76.1 97% 78 30.08 0.0
31 22:35 Calm 10.00 Fair CLR 77.2 76.3 97% 78 30.08 0.0
31 22:15 Calm 10.00 Fair CLR 77.2 76.8 99% 78 30.08 0.0
31 21:55 Calm 10.00 Fair CLR 77.7 77.5 99% 80 30.09 0.0
31 21:35 Calm 10.00 Fair CLR 77.2 77.2 100% 78 30.08 0.0
31 21:15 Calm 10.00 Fair CLR 78.1 76.8 96% 81 30.08 0.0
31 20:55 Calm 10.00 Fair CLR 79.5 77.5 94% 85 30.07 0.0
31 20:35 Calm 10.00 Fair CLR 79.5 77.5 94% 85 30.07 0.0
31 20:15 Calm 10.00 Fair CLR 80.8 76.5 87% 87 30.07 0.0
31 19:55 Calm 10.00 Fair CLR 81.3 77.2 87% 89 30.06 0.0
31 19:35 Calm 10.00 Fair CLR 82.2 77.2 85% 91 30.06 0.0
31 19:15 Calm 10.00 Fair CLR 83.5 77.4 82% 93 30.06 0.0
31 18:55 Calm 10.00 Fair CLR 84.7 77.9 94.3 84.7 80% 96 30.06 0.0
31 18:35 Calm 10.00 Fair CLR 86.9 76.6 72% 98 30.06 0.0
31 18:15 Calm 10.00 A Few Clouds FEW100 89.2 73.8 60% 98 30.06 0.0
31 17:55 E 3 10.00 Overcast OVC100 90.1 71.6 55% 97 30.06 0.0
31 17:35 E 3 10.00 Overcast OVC100 90.5 71.8 54% 98 30.06 0.0
31 17:15 E 7 10.00 Overcast BKN095 OVC110 92.3 71.6 51% 100 30.07 0.0
31 16:55 E 8 8.00 Mostly Cloudy BKN110 92.7 71.2 50% 100 30.07 0.0
31 16:35 E 8 8.00 Partly Cloudy SCT110 92.8 72.7 52% 101 30.07 0.0
31 16:15 E 10 9.00 Mostly Cloudy FEW060 BKN100 92.7 72.9 53% 101 30.08 0.0
31 15:55 SE 3 8.00 Mostly Cloudy SCT060 SCT070 BKN110 92.7 71.6 50% 100 30.07 0.0
31 15:35 NE 5 9.00 Mostly Cloudy SCT055 BKN070 93 71.1 49% 100 30.08 0.0
31 15:15 Vrbl 3 9.00 A Few Clouds FEW055 94.3 69.8 45% 100 30.08 0.0
31 14:55 Vrbl 3 9.00 Partly Cloudy SCT050 93.7 69.1 45% 99 30.09 0.0
31 14:35 Calm 10.00 Partly Cloudy SCT050 93.4 69.6 46% 99 30.09 0.0
31 14:15 Calm 9.00 Fair CLR 92.3 71.4 51% 100 30.1 0.0
31 13:55 Calm 9.00 Fair CLR 92.3 71.6 51% 100 30.11 0.0
31 13:35 Calm 10.00 Fair CLR 91.6 73 55% 100 30.11 0.0
31 13:15 Calm 9.00 A Few Clouds FEW050 90 73.9 59% 99 30.12 0.0
31 12:55 Calm 9.00 Mostly Cloudy FEW055 BKN080 86 78.1 90.9 72.7 77% 98 30.13 0.0
31 12:35 Calm 9.00 A Few Clouds FEW075 89.8 73.4 59% 98 30.13 0.0
31 12:15 Calm 9.00 Fair CLR 88.7 73.2 60% 97 30.14 0.0
31 11:55 Vrbl 5 9.00 Fair CLR 88.9 74.8 63% 99 30.15 0.0
31 11:35 Vrbl 5 10.00 Fair CLR 89.2 75 63% 100 30.15 0.0
31 11:15 Calm 10.00 Fair CLR 88 74.8 65% 98 30.15 0.0
31 10:55 S 6 10.00 Fair CLR 87.3 75.6 68% 97 30.15 0.0
Date Time (cdt) Wind (mph) Vis. (mi.) Weather Sky Cond. Air Dwpt Max. Min. Relative Humidity Wind Chill (°F) Heat Index (°F) altimeter (in) sea level (mb) 1 hr 3 hr 6 hr
6 hour
Temperature (ºF) Pressure Precipitation (in)